Flight Track Log - Related Links

Times and Time Zones

All times are in EST time to prevent confusion due to time zone crossing. See the CSH9416 flight status page for this flight to view local times or setup timezone preferences in your user account.

Time Position Orientation Groundspeed Altitude Reporting Facility
EST Latitude Longitude Course Direction KTS MPH feet Rate Location/Type
Sun 10:03:00 PM 34.2122 119.1470 148° Southeast  Level Estimated
Sun 10:04:00 PM 34.1522 119.1923 148° Southeast  Level Estimated
Sun 10:05:00 PM 34.0922 119.2376 148° Southeast  Level Estimated
Sun 10:06:00 PM 34.0322 119.2828 148° Southeast  Level Estimated
Sun 10:07:00 PM 33.9721 119.3279 148° Southeast  Level Estimated
Sun 10:08:00 PM 33.9121 119.3730 148° Southeast  Level Estimated
Sun 10:09:00 PM 33.8520 119.4181 148° Southeast  Level Estimated
Sun 10:10:00 PM 33.7919 119.4630 148° Southeast  Level Estimated
Sun 10:11:00 PM 33.7318 119.5079 148° Southeast  Level Estimated
Sun 10:12:00 PM 33.6717 119.5527 148° Southeast  Level Estimated
Sun 10:13:00 PM 33.6116 119.5975 148° Southeast  Level Estimated
Sun 10:14:00 PM 33.5515 119.6422 148° Southeast  Level Estimated
Sun 10:15:00 PM 33.4913 119.6868 148° Southeast  Level Estimated
Sun 10:16:00 PM 33.4311 119.7314 148° Southeast  Level Estimated
Sun 10:17:00 PM 33.3709 119.7759 148° Southeast  Level Estimated
Sun 10:18:00 PM 33.3107 119.8204 148° Southeast  Level Estimated
Sun 10:19:00 PM 33.2505 119.8648 148° Southeast  Level Estimated
Sun 10:20:00 PM 33.1903 119.9091 148° Southeast  Level Estimated
Sun 10:21:00 PM 33.1300 119.9534 148° Southeast  Level Estimated
Sun 10:22:00 PM 33.0698 119.9976 148° Southeast  Level Estimated
Sun 10:23:00 PM 33.0095 120.0417 148° Southeast  Level Estimated
Sun 10:24:00 PM 32.9492 120.0858 148° Southeast  Level Estimated
Sun 10:25:00 PM 32.8889 120.1298 148° Southeast  Level Estimated
Sun 10:26:00 PM 32.8285 120.1738 149° Southeast  Level Estimated
Sun 10:27:00 PM 32.7682 120.2177 149° Southeast  Level Estimated
Sun 10:28:00 PM 32.7078 120.2616 149° Southeast  Level Estimated
Sun 10:29:00 PM 32.6474 120.3054 149° Southeast  Level Estimated
Sun 10:30:00 PM 32.5870 120.3491 149° Southeast  Level Estimated
Sun 10:31:00 PM 32.5266 120.3928 149° Southeast  Level Estimated
Sun 10:32:00 PM 32.4662 120.4364 149° Southeast  Level Estimated
Sun 10:33:00 PM 32.4058 120.4799 149° Southeast  Level Estimated
Sun 10:34:00 PM 32.3453 120.5234 149° Southeast  Level Estimated
Sun 10:35:00 PM 32.2849 120.5669 149° Southeast  Level Estimated
Sun 10:36:00 PM 32.2244 120.6103 149° Southeast  Level Estimated
Sun 10:37:00 PM 32.1639 120.6536 149° Southeast  Level Estimated
Sun 10:38:00 PM 32.1034 120.6968 149° Southeast  Level Estimated
Sun 10:39:00 PM 32.0428 120.7401 149° Southeast  Level Estimated
Sun 10:40:00 PM 31.9823 120.7832 149° Southeast  Level Estimated
Sun 10:41:00 PM 31.9217 120.8263 149° Southeast  Level Estimated
Sun 10:42:00 PM 31.8612 120.8693 149° Southeast  Level Estimated
Sun 10:43:00 PM 31.8006 120.9123 149° Southeast  Level Estimated
Sun 10:44:00 PM 31.7400 120.9552 149° Southeast  Level Estimated
Sun 10:45:00 PM 31.6794 120.9981 149° Southeast  Level Estimated
Sun 10:46:00 PM 31.6187 121.0409 149° Southeast  Level Estimated
Sun 10:47:00 PM 31.5581 121.0837 149° Southeast  Level Estimated
Sun 10:48:00 PM 31.4974 121.1264 149° Southeast  Level Estimated
Sun 10:49:00 PM 31.4368 121.1690 149° Southeast  Level Estimated
Sun 10:50:00 PM 31.3761 121.2116 149° Southeast  Level Estimated
Sun 10:51:00 PM 31.3154 121.2542 149° Southeast  Level Estimated
Sun 10:52:00 PM 31.2547 121.2966 149° Southeast  Level Estimated
Sun 10:53:00 PM 31.1979 121.3363 149° Southeast  Level Estimated
Sun 10:54:00 PM 31.1979 121.3363 190° South  Level Estimated
Sun 10:55:00 PM 31.1979 121.3363 350° North  Level Estimated
Sun 10:56:00 PM 31.1979 121.3363 350° North  Level Estimated
Sun 10:57:00 PM 31.1979 121.3363 350° North  Level Estimated
Sun 10:58:00 PM 31.1979 121.3363 350° North  Level Estimated
Sun 10:59:00 PM 31.1979 121.3363 350° North  Level Estimated
Sun 11:00:00 PM 31.1979 121.3363 350° North  Level Estimated
Sun 11:01:00 PM 31.1979 121.3363 350° North  Level Estimated
Sun 11:02:00 PM 31.1979 121.3363 350° North  Level Estimated
Sun 11:03:00 PM 31.1979 121.3363 350° North  Level Estimated
Sun 11:04:00 PM 31.1979 121.3363 350° North  Level Estimated

Login

Don't have an account? Register now (free) for customized features, flight alerts, and more!